createdAt,value
2022-09-06T00:00:10.499Z,19.10
2022-09-06T00:02:38.910Z,19.10
2022-09-06T00:05:08.009Z,19.10
2022-09-06T00:07:37.131Z,19.00
2022-09-06T00:10:08.135Z,19.10
2022-09-06T00:12:36.607Z,19.10
2022-09-06T00:15:05.844Z,19.20
2022-09-06T00:17:36.554Z,19.20
2022-09-06T00:20:09.054Z,19.30
2022-09-06T00:22:37.491Z,19.20
2022-09-06T00:25:08.132Z,19.30
2022-09-06T00:27:36.630Z,19.30
2022-09-06T00:30:06.035Z,19.30
2022-09-06T00:32:34.216Z,19.30
2022-09-06T00:35:02.386Z,19.30
2022-09-06T00:37:30.484Z,19.30
2022-09-06T00:39:58.570Z,19.30
2022-09-06T00:42:28.020Z,19.30
2022-09-06T00:44:56.183Z,19.20
2022-09-06T00:47:24.484Z,19.20
2022-09-06T00:49:55.494Z,19.20
2022-09-06T00:52:24.694Z,19.00
2022-09-06T00:54:53.924Z,19.00
2022-09-06T00:57:27.091Z,19.00
2022-09-06T00:59:57.989Z,19.00
2022-09-06T01:02:26.317Z,19.00
2022-09-06T01:04:55.619Z,19.00
2022-09-06T01:07:33.820Z,19.00
2022-09-06T01:10:15.404Z,19.00
2022-09-06T01:12:51.122Z,19.00
2022-09-06T01:15:31.165Z,19.00
2022-09-06T01:18:10.032Z,19.00
2022-09-06T01:20:57.861Z,19.10
2022-09-06T01:23:56.485Z,19.10
2022-09-06T01:26:46.572Z,19.00
2022-09-06T01:29:24.368Z,19.00
2022-09-06T01:31:57.664Z,19.10
2022-09-06T01:34:30.206Z,19.10
2022-09-06T01:37:10.825Z,19.00
2022-09-06T01:39:41.275Z,19.00
2022-09-06T01:42:13.081Z,19.10
2022-09-06T01:44:46.597Z,19.10
2022-09-06T01:47:25.231Z,19.10
2022-09-06T01:50:06.790Z,19.10
2022-09-06T01:52:40.318Z,19.10
2022-09-06T01:55:20.251Z,19.10
2022-09-06T01:57:58.907Z,19.10
2022-09-06T02:00:28.361Z,19.10
2022-09-06T02:03:07.403Z,19.10
2022-09-06T02:05:40.070Z,19.00
2022-09-06T02:08:12.125Z,19.00
2022-09-06T02:10:46.985Z,19.10
2022-09-06T02:13:17.862Z,19.10
2022-09-06T02:15:52.307Z,19.00
2022-09-06T02:18:24.488Z,19.10
2022-09-06T02:20:56.551Z,19.10
2022-09-06T02:23:27.392Z,19.10
2022-09-06T02:25:58.435Z,19.10
2022-09-06T02:28:27.163Z,19.00
2022-09-06T02:31:00.793Z,19.00
2022-09-06T02:33:32.058Z,19.10
2022-09-06T02:36:05.761Z,19.10
2022-09-06T02:38:37.012Z,19.10
2022-09-06T02:41:06.524Z,19.10
2022-09-06T02:43:34.498Z,19.20
2022-09-06T02:46:04.064Z,19.30
2022-09-06T02:48:31.986Z,19.20
2022-09-06T02:51:03.929Z,19.20
2022-09-06T02:53:32.002Z,19.40
2022-09-06T02:55:59.959Z,19.40
2022-09-06T02:58:28.497Z,19.40
2022-09-06T03:00:56.815Z,19.50
2022-09-06T03:03:27.385Z,19.50
2022-09-06T03:05:56.493Z,19.50
2022-09-06T03:08:26.737Z,19.60
2022-09-06T03:10:56.497Z,19.60
2022-09-06T03:13:25.343Z,19.60
2022-09-06T03:15:54.630Z,19.60
2022-09-06T03:18:22.818Z,19.40
2022-09-06T03:20:53.012Z,19.20
2022-09-06T03:23:21.880Z,19.00
2022-09-06T03:25:49.877Z,18.90
2022-09-06T03:28:18.444Z,18.90
2022-09-06T03:30:47.039Z,18.90
2022-09-06T03:33:15.629Z,18.80
2022-09-06T03:35:54.528Z,18.60
2022-09-06T03:38:23.562Z,18.40
2022-09-06T03:40:52.857Z,18.30
2022-09-06T03:43:23.027Z,18.20
2022-09-06T03:45:52.390Z,18.20
2022-09-06T03:48:21.988Z,18.20
2022-09-06T03:50:53.194Z,18.20
2022-09-06T03:53:21.890Z,18.10
2022-09-06T03:55:51.999Z,18.10
2022-09-06T03:58:22.442Z,18.20
2022-09-06T04:00:51.242Z,18.20
2022-09-06T04:03:20.180Z,18.40
2022-09-06T04:05:48.594Z,18.40
2022-09-06T04:08:18.025Z,18.40
2022-09-06T04:10:45.960Z,18.40
2022-09-06T04:13:13.934Z,18.40
2022-09-06T04:15:42.051Z,18.40
2022-09-06T04:18:10.078Z,18.60
2022-09-06T04:20:38.055Z,18.70
2022-09-06T04:23:06.261Z,18.80
2022-09-06T04:25:35.794Z,18.80
2022-09-06T04:28:04.168Z,18.80
2022-09-06T04:30:32.282Z,18.90
2022-09-06T04:33:00.260Z,18.80
2022-09-06T04:35:28.356Z,18.80
2022-09-06T04:37:56.385Z,18.70
2022-09-06T04:40:24.492Z,18.60
2022-09-06T04:42:53.840Z,18.70
2022-09-06T04:45:21.857Z,18.70
2022-09-06T04:47:51.597Z,18.60
2022-09-06T04:50:19.760Z,18.60
2022-09-06T04:52:47.708Z,18.60
2022-09-06T04:55:15.975Z,18.60
2022-09-06T04:57:47.471Z,18.80
2022-09-06T05:00:19.698Z,18.80
2022-09-06T05:02:48.506Z,18.70
2022-09-06T05:05:17.936Z,18.80
2022-09-06T05:07:46.176Z,18.80
2022-09-06T05:10:14.272Z,18.80
2022-09-06T05:12:44.447Z,18.80
2022-09-06T05:15:12.876Z,18.90
2022-09-06T05:17:42.154Z,18.90
2022-09-06T05:20:12.087Z,18.90
2022-09-06T05:22:40.228Z,18.80
2022-09-06T05:25:09.338Z,18.90
2022-09-06T05:27:37.699Z,19.00
2022-09-06T05:30:06.907Z,19.10
2022-09-06T05:32:37.168Z,19.10
2022-09-06T05:35:06.878Z,18.90
2022-09-06T05:37:35.034Z,18.80
2022-09-06T05:40:03.728Z,18.80
2022-09-06T05:42:33.114Z,19.00
2022-09-06T05:45:02.256Z,19.00
2022-09-06T05:47:33.150Z,18.90
2022-09-06T05:50:01.527Z,19.00
2022-09-06T05:52:31.167Z,19.00
2022-09-06T05:54:59.271Z,19.10
2022-09-06T05:57:27.357Z,19.00
2022-09-06T05:59:55.241Z,18.80
2022-09-06T06:02:24.282Z,18.80
2022-09-06T06:04:54.484Z,18.80
2022-09-06T06:07:22.452Z,18.70
2022-09-06T06:09:51.866Z,18.70
2022-09-06T06:12:21.866Z,18.80
2022-09-06T06:14:50.361Z,18.90
2022-09-06T06:17:18.694Z,19.00
2022-09-06T06:19:46.615Z,19.10
2022-09-06T06:22:15.223Z,19.20
2022-09-06T06:24:43.280Z,19.20
2022-09-06T06:27:12.733Z,19.40
2022-09-06T06:29:41.004Z,19.30
2022-09-06T06:32:09.153Z,19.40
2022-09-06T06:34:37.307Z,19.50
2022-09-06T06:37:05.437Z,19.60
2022-09-06T06:39:33.461Z,19.70
2022-09-06T06:42:01.476Z,19.80
2022-09-06T06:44:30.927Z,19.70
2022-09-06T06:47:01.929Z,19.80
2022-09-06T06:49:30.328Z,19.80
2022-09-06T06:51:58.376Z,19.90
2022-09-06T06:54:26.375Z,20.00
2022-09-06T06:56:54.502Z,20.20
2022-09-06T06:59:22.822Z,20.20
2022-09-06T07:01:53.329Z,20.20
2022-09-06T07:04:21.952Z,20.40
2022-09-06T07:12:33.391Z,21.10
2022-09-06T07:15:01.333Z,21.20
2022-09-06T07:17:30.957Z,21.30
2022-09-06T07:20:15.196Z,21.40
2022-09-06T07:22:44.378Z,21.40
2022-09-06T07:25:17.608Z,21.40
2022-09-06T07:27:50.148Z,21.60
2022-09-06T07:30:19.815Z,21.70
2022-09-06T07:32:49.767Z,21.90
2022-09-06T07:35:20.300Z,22.10
2022-09-06T07:37:55.019Z,22.20
2022-09-06T07:40:24.008Z,22.30
2022-09-06T07:42:52.298Z,22.50
2022-09-06T07:45:20.492Z,22.60
2022-09-06T07:53:16.750Z,23.00
2022-09-06T07:55:49.825Z,23.20
2022-09-06T07:58:17.962Z,23.40
2022-09-06T08:00:45.990Z,23.60
2022-09-06T08:03:15.436Z,23.60
2022-09-06T08:11:20.801Z,24.00
2022-09-06T08:13:51.238Z,24.20
2022-09-06T08:16:20.199Z,24.40
2022-09-06T08:18:53.511Z,24.70
2022-09-06T08:21:23.513Z,24.70
2022-09-06T08:23:53.932Z,24.90
2022-09-06T08:26:24.263Z,24.50
2022-09-06T08:28:55.611Z,24.10
2022-09-06T08:31:23.695Z,24.20
2022-09-06T08:33:53.514Z,24.30
2022-09-06T08:36:22.061Z,24.30
2022-09-06T08:38:50.163Z,24.60
2022-09-06T08:41:26.007Z,24.90
2022-09-06T08:46:53.277Z,25.30
2022-09-06T08:49:23.597Z,25.50
2022-09-06T08:52:03.332Z,25.40
2022-09-06T08:54:37.755Z,25.30
2022-09-06T08:57:16.691Z,25.50
2022-09-06T08:59:45.099Z,25.80
2022-09-06T09:02:16.439Z,26.20
2022-09-06T09:04:52.000Z,26.20
2022-09-06T09:07:30.903Z,26.40
2022-09-06T09:10:00.597Z,26.40
2022-09-06T09:12:32.921Z,26.50
2022-09-06T09:15:08.736Z,26.90
2022-09-06T09:17:38.389Z,27.20
2022-09-06T09:20:09.357Z,27.50
2022-09-06T09:22:37.946Z,27.50
2022-09-06T09:25:08.718Z,27.60
2022-09-06T09:27:37.918Z,27.70
2022-09-06T09:32:56.589Z,27.40
2022-09-06T09:35:33.913Z,27.50
2022-09-06T09:38:08.104Z,27.60
2022-09-06T09:40:41.984Z,27.90
2022-09-06T09:43:17.940Z,28.00
2022-09-06T09:45:49.712Z,28.00
2022-09-06T09:48:22.243Z,28.10
2022-09-06T09:50:52.140Z,28.00
2022-09-06T09:53:23.435Z,27.90
2022-09-06T09:55:57.461Z,27.20
2022-09-06T09:58:34.730Z,27.60
2022-09-06T10:01:17.736Z,28.00
2022-09-06T10:09:33.372Z,28.30
2022-09-06T10:12:01.663Z,28.30
2022-09-06T10:14:32.095Z,28.10
2022-09-06T10:17:01.874Z,28.00
2022-09-06T10:19:42.259Z,28.00
2022-09-06T10:22:23.528Z,28.10
2022-09-06T10:25:36.167Z,28.60
2022-09-06T10:28:32.633Z,28.60
2022-09-06T10:31:28.158Z,28.80
2022-09-06T10:34:10.424Z,29.40
2022-09-06T10:36:41.120Z,29.60
2022-09-06T10:39:27.009Z,29.40
2022-09-06T10:42:07.695Z,29.40
2022-09-06T10:44:50.364Z,29.00
2022-09-06T10:47:19.635Z,28.90
2022-09-06T10:49:52.096Z,29.10
2022-09-06T10:52:25.526Z,28.40
2022-09-06T10:55:02.149Z,28.00
2022-09-06T11:00:24.244Z,28.90
2022-09-06T11:05:54.272Z,29.40
2022-09-06T11:11:21.345Z,30.00
2022-09-06T11:13:49.589Z,30.30
2022-09-06T11:16:24.410Z,30.20
2022-09-06T11:18:59.379Z,30.40
2022-09-06T11:21:55.288Z,29.70
2022-09-06T11:24:38.958Z,30.30
2022-09-06T11:27:14.812Z,30.10
2022-09-06T11:29:46.230Z,30.60
2022-09-06T11:32:34.485Z,30.40
2022-09-06T11:35:05.635Z,29.70
2022-09-06T11:37:35.939Z,30.30
2022-09-06T11:43:16.254Z,30.80
2022-09-06T11:45:47.998Z,30.80
2022-09-06T11:48:36.673Z,30.70
2022-09-06T11:51:10.852Z,30.50
2022-09-06T11:54:10.050Z,30.60
2022-09-06T11:56:43.832Z,30.50
2022-09-06T11:59:29.461Z,30.90
2022-09-06T12:02:03.180Z,31.10
2022-09-06T12:05:26.648Z,31.30
2022-09-06T12:08:28.217Z,31.40
2022-09-06T12:11:07.497Z,31.70
2022-09-06T12:14:03.280Z,31.70
2022-09-06T12:17:09.056Z,31.80
2022-09-06T12:19:44.789Z,31.60
2022-09-06T12:22:51.961Z,31.60
2022-09-06T12:25:23.707Z,31.70
2022-09-06T12:30:37.263Z,31.50
2022-09-06T12:33:08.657Z,31.80
2022-09-06T12:38:26.755Z,31.60
2022-09-06T12:40:59.218Z,31.90
2022-09-06T12:43:28.303Z,32.00
2022-09-06T12:45:56.384Z,31.90
2022-09-06T12:48:29.422Z,31.80
2022-09-06T12:51:13.536Z,31.90
2022-09-06T12:53:51.956Z,31.80
2022-09-06T12:56:22.894Z,31.70
2022-09-06T12:58:51.366Z,31.80
2022-09-06T13:01:26.447Z,31.90
2022-09-06T13:04:02.794Z,31.70
2022-09-06T13:06:37.401Z,31.10
2022-09-06T13:09:08.784Z,31.50
2022-09-06T13:11:39.598Z,31.70
2022-09-06T13:14:14.422Z,31.70
2022-09-06T13:16:47.020Z,31.00
2022-09-06T13:19:17.334Z,30.90
2022-09-06T13:21:47.971Z,31.00
2022-09-06T13:24:24.493Z,31.20
2022-09-06T13:26:53.604Z,30.70
2022-09-06T13:29:26.741Z,31.10
2022-09-06T13:31:58.158Z,31.50
2022-09-06T13:34:28.758Z,31.90
2022-09-06T13:37:04.452Z,31.90
2022-09-06T13:39:34.851Z,32.20
2022-09-06T13:42:05.948Z,32.30
2022-09-06T13:44:35.042Z,32.10
2022-09-06T13:47:03.717Z,31.40
2022-09-06T13:49:32.440Z,31.50
2022-09-06T13:52:03.724Z,31.50
2022-09-06T13:54:34.385Z,31.50
2022-09-06T13:57:03.048Z,31.50
2022-09-06T13:59:31.682Z,31.10
2022-09-06T14:02:03.706Z,31.20
2022-09-06T14:04:32.603Z,31.20
2022-09-06T14:07:02.622Z,31.00
2022-09-06T14:09:30.955Z,31.40
2022-09-06T14:11:59.167Z,31.90
2022-09-06T14:14:27.487Z,32.10
2022-09-06T14:16:55.519Z,32.20
2022-09-06T14:19:24.731Z,31.80
2022-09-06T14:21:53.212Z,31.90
2022-09-06T14:24:23.011Z,31.50
2022-09-06T14:26:51.223Z,31.50
2022-09-06T14:29:19.443Z,31.70
2022-09-06T14:31:49.397Z,31.40
2022-09-06T14:34:17.579Z,30.80
2022-09-06T14:36:45.781Z,31.10
2022-09-06T14:39:13.817Z,31.40
2022-09-06T14:41:43.346Z,31.60
2022-09-06T14:44:11.451Z,31.40
2022-09-06T14:46:39.672Z,31.60
2022-09-06T14:49:10.044Z,31.50
2022-09-06T14:51:39.789Z,31.60
2022-09-06T14:54:09.405Z,31.50
2022-09-06T14:56:39.940Z,31.70
2022-09-06T14:59:10.254Z,31.50
2022-09-06T15:01:39.457Z,31.40
2022-09-06T15:04:09.443Z,31.60
2022-09-06T15:06:40.234Z,31.60
2022-09-06T15:09:11.627Z,31.30
2022-09-06T15:11:41.782Z,31.30
2022-09-06T15:14:17.927Z,31.20
2022-09-06T15:16:46.541Z,31.30
2022-09-06T15:19:14.894Z,31.60
2022-09-06T15:21:43.286Z,30.80
2022-09-06T15:24:12.330Z,31.00
2022-09-06T15:26:41.459Z,31.10
2022-09-06T15:29:12.138Z,31.10
2022-09-06T15:31:40.840Z,31.20
2022-09-06T15:34:09.783Z,31.20
2022-09-06T15:36:41.172Z,31.20
2022-09-06T15:39:09.299Z,31.20
2022-09-06T15:41:40.387Z,31.30
2022-09-06T15:44:12.236Z,31.00
2022-09-06T15:46:46.852Z,30.60
2022-09-06T15:49:17.567Z,30.60
2022-09-06T15:51:46.362Z,30.70
2022-09-06T15:54:15.544Z,30.60
2022-09-06T15:56:44.059Z,30.10
2022-09-06T15:59:14.171Z,29.70
2022-09-06T16:01:42.497Z,29.70
2022-09-06T16:04:10.755Z,29.70
2022-09-06T16:06:45.055Z,29.50
2022-09-06T16:09:17.634Z,29.20
2022-09-06T16:11:46.062Z,28.90
2022-09-06T16:14:16.382Z,28.90
2022-09-06T16:16:44.834Z,29.00
2022-09-06T16:19:14.210Z,29.00
2022-09-06T16:21:43.912Z,28.80
2022-09-06T16:24:14.430Z,28.50
2022-09-06T16:26:46.089Z,28.30
2022-09-06T16:29:18.043Z,28.40
2022-09-06T16:31:47.065Z,28.50
2022-09-06T16:34:16.248Z,28.50
2022-09-06T16:36:44.566Z,28.50
2022-09-06T16:39:12.916Z,28.50
2022-09-06T16:41:42.824Z,28.40
2022-09-06T16:44:16.021Z,28.30
2022-09-06T16:46:49.389Z,28.00
2022-09-06T16:49:19.306Z,27.90
2022-09-06T16:51:47.913Z,27.80
2022-09-06T16:54:16.509Z,27.70
2022-09-06T16:56:45.266Z,27.60
2022-09-06T16:59:15.207Z,27.40
2022-09-06T17:01:44.318Z,27.30
2022-09-06T17:04:14.394Z,27.20
2022-09-06T17:06:45.615Z,27.00
2022-09-06T17:09:15.001Z,26.90
2022-09-06T17:11:43.218Z,26.80
2022-09-06T17:14:13.243Z,26.60
2022-09-06T17:16:59.003Z,26.60
2022-09-06T17:19:29.778Z,26.50
2022-09-06T17:21:57.901Z,26.50
2022-09-06T17:24:26.791Z,26.40
2022-09-06T17:26:55.472Z,26.30
2022-09-06T17:29:24.500Z,26.20
2022-09-06T17:31:53.627Z,26.10
2022-09-06T17:34:21.982Z,25.90
2022-09-06T17:36:51.727Z,25.80
2022-09-06T17:39:21.979Z,25.80
2022-09-06T17:41:52.379Z,25.80
2022-09-06T17:44:26.259Z,25.70
2022-09-06T17:49:43.902Z,25.80
2022-09-06T17:52:13.850Z,25.90
2022-09-06T17:54:41.892Z,26.10
2022-09-06T17:57:10.046Z,26.30
2022-09-06T17:59:38.658Z,26.40
2022-09-06T18:02:07.664Z,26.40
2022-09-06T18:04:36.457Z,26.40
2022-09-06T18:07:04.969Z,26.10
2022-09-06T18:09:34.762Z,25.80
2022-09-06T18:12:03.131Z,25.70
2022-09-06T18:14:31.304Z,25.10
2022-09-06T18:16:59.968Z,24.30
2022-09-06T18:19:28.651Z,24.00
2022-09-06T18:21:57.349Z,23.60
2022-09-06T18:24:25.834Z,23.50
2022-09-06T18:26:55.657Z,23.50
2022-09-06T18:29:24.353Z,23.70
2022-09-06T18:31:54.084Z,23.50
2022-09-06T18:34:22.910Z,23.30
2022-09-06T18:36:51.147Z,23.10
2022-09-06T18:39:20.606Z,22.70
2022-09-06T18:42:01.239Z,22.60
2022-09-06T18:44:32.704Z,22.50
2022-09-06T18:47:02.336Z,22.50
2022-09-06T18:49:32.516Z,22.00
2022-09-06T18:52:01.289Z,21.50
2022-09-06T18:54:30.042Z,21.30
2022-09-06T18:56:58.535Z,21.20
2022-09-06T18:59:26.668Z,21.30
2022-09-06T19:01:56.329Z,21.30
2022-09-06T19:04:24.678Z,21.20
2022-09-06T19:06:52.745Z,21.00
2022-09-06T19:09:21.037Z,20.70
2022-09-06T19:11:51.621Z,20.20
2022-09-06T19:14:20.318Z,19.80
2022-09-06T19:16:50.122Z,19.80
2022-09-06T19:19:21.513Z,19.80
2022-09-06T19:21:49.573Z,19.80
2022-09-06T19:24:17.630Z,19.80
2022-09-06T19:26:47.007Z,19.90
2022-09-06T19:29:17.559Z,20.10
2022-09-06T19:31:46.959Z,20.30
2022-09-06T19:34:15.660Z,20.30
2022-09-06T19:36:46.214Z,20.00
2022-09-06T19:39:17.416Z,19.80
2022-09-06T19:41:47.636Z,19.70
2022-09-06T19:44:17.002Z,19.90
2022-09-06T19:46:47.202Z,20.10
2022-09-06T19:49:17.226Z,20.30
2022-09-06T19:51:48.679Z,20.40
2022-09-06T19:54:17.979Z,20.50
2022-09-06T19:56:47.062Z,20.40
2022-09-06T19:59:16.601Z,20.30
2022-09-06T20:01:46.716Z,19.60
2022-09-06T20:04:15.845Z,19.30
2022-09-06T20:06:44.161Z,19.20
2022-09-06T20:09:15.857Z,19.40
2022-09-06T20:11:44.188Z,19.50
2022-09-06T20:14:13.223Z,19.40
2022-09-06T20:16:43.026Z,19.50
2022-09-06T20:19:13.096Z,19.60
2022-09-06T20:21:41.316Z,19.70
2022-09-06T20:24:09.518Z,19.90
2022-09-06T20:26:40.340Z,19.90
2022-09-06T20:29:09.016Z,20.00
2022-09-06T20:31:38.157Z,20.20
2022-09-06T20:34:07.535Z,20.20
2022-09-06T20:36:35.615Z,20.30
2022-09-06T20:39:04.368Z,20.20
2022-09-06T20:41:33.872Z,20.20
2022-09-06T20:44:04.027Z,20.10
2022-09-06T20:46:35.213Z,20.00
2022-09-06T20:49:05.455Z,19.80
2022-09-06T20:51:35.178Z,19.60
2022-09-06T20:54:05.405Z,19.60
2022-09-06T20:56:35.635Z,19.70
2022-09-06T20:59:09.095Z,19.50
2022-09-06T21:01:38.758Z,19.40
2022-09-06T21:04:09.550Z,19.40
2022-09-06T21:06:39.364Z,19.50
2022-09-06T21:09:09.617Z,19.50
2022-09-06T21:11:38.695Z,19.60
2022-09-06T21:14:09.331Z,19.70
2022-09-06T21:16:38.956Z,19.60
2022-09-06T21:19:09.076Z,19.40
2022-09-06T21:21:37.681Z,19.20
2022-09-06T21:24:07.760Z,19.10
2022-09-06T21:26:36.330Z,19.10
2022-09-06T21:29:05.134Z,19.30
2022-09-06T21:31:37.116Z,19.00
2022-09-06T21:34:07.233Z,18.70
2022-09-06T21:36:36.938Z,18.60
2022-09-06T21:39:07.647Z,18.70
2022-09-06T21:41:35.634Z,18.90
2022-09-06T21:44:05.766Z,19.00
2022-09-06T21:46:37.366Z,19.10
2022-09-06T21:49:08.269Z,19.10
2022-09-06T21:51:37.054Z,19.10
2022-09-06T21:54:06.116Z,19.00
2022-09-06T21:56:35.850Z,19.00
2022-09-06T21:59:04.945Z,19.10
2022-09-06T22:01:36.032Z,19.10
2022-09-06T22:04:04.967Z,19.10
2022-09-06T22:06:34.374Z,19.20
2022-09-06T22:09:07.719Z,19.30
2022-09-06T22:11:36.265Z,19.40
2022-09-06T22:14:06.393Z,19.40
2022-09-06T22:16:37.864Z,19.40
2022-09-06T22:19:07.750Z,19.40
2022-09-06T22:21:36.340Z,19.40
2022-09-06T22:24:06.767Z,19.30
2022-09-06T22:26:36.602Z,19.30
2022-09-06T22:29:06.899Z,19.30
2022-09-06T22:31:37.446Z,19.20
2022-09-06T22:34:05.869Z,19.10
2022-09-06T22:36:33.966Z,19.10
2022-09-06T22:39:02.433Z,19.10
2022-09-06T22:41:32.178Z,19.20
2022-09-06T22:44:01.659Z,19.20
2022-09-06T22:46:30.411Z,19.20
2022-09-06T22:49:00.181Z,19.30
2022-09-06T22:51:28.586Z,19.30
2022-09-06T22:53:56.696Z,19.20
2022-09-06T22:56:25.299Z,19.10
2022-09-06T22:58:53.369Z,19.10
2022-09-06T23:01:22.061Z,19.10
2022-09-06T23:03:50.718Z,19.00
2022-09-06T23:06:20.594Z,19.10
2022-09-06T23:08:48.709Z,19.00
2022-09-06T23:11:18.765Z,19.00
2022-09-06T23:13:47.348Z,19.00
2022-09-06T23:16:17.293Z,19.00
2022-09-06T23:18:46.378Z,19.00
2022-09-06T23:35:21.185Z,19.00
2022-09-06T23:37:51.435Z,19.00
2022-09-06T23:40:20.045Z,19.00
2022-09-06T23:42:48.651Z,19.00
2022-09-06T23:45:17.268Z,19.00
2022-09-06T23:47:45.246Z,19.00
2022-09-06T23:50:13.424Z,19.00
2022-09-06T23:52:42.809Z,19.00
2022-09-06T23:55:11.090Z,19.00
2022-09-06T23:57:39.142Z,18.90
